sensor_id;sensor_type;location;lat;lon;timestamp;P1;durP1;ratioP1;P2;durP2;ratioP2
7051;SDS011;3567;52.444;13.556;2023-07-13T00:02:05;3.97;;;1.70;;
7051;SDS011;3567;52.444;13.556;2023-07-13T00:04:30;3.50;;;1.80;;
7051;SDS011;3567;52.444;13.556;2023-07-13T00:06:56;2.58;;;1.65;;
7051;SDS011;3567;52.444;13.556;2023-07-13T00:09:21;2.47;;;1.83;;
7051;SDS011;3567;52.444;13.556;2023-07-13T00:11:49;4.38;;;2.47;;
7051;SDS011;3567;52.444;13.556;2023-07-13T00:14:17;4.32;;;2.40;;
7051;SDS011;3567;52.444;13.556;2023-07-13T00:16:42;3.45;;;1.80;;
7051;SDS011;3567;52.444;13.556;2023-07-13T00:19:11;1.70;;;1.60;;
7051;SDS011;3567;52.444;13.556;2023-07-13T00:21:38;3.95;;;2.10;;
7051;SDS011;3567;52.444;13.556;2023-07-13T00:24:04;2.53;;;1.67;;
7051;SDS011;3567;52.444;13.556;2023-07-13T00:26:31;1.92;;;1.63;;
7051;SDS011;3567;52.444;13.556;2023-07-13T00:28:57;3.95;;;1.90;;
7051;SDS011;3567;52.444;13.556;2023-07-13T00:31:23;2.33;;;1.27;;
7051;SDS011;3567;52.444;13.556;2023-07-13T00:33:48;3.45;;;1.67;;
7051;SDS011;3567;52.444;13.556;2023-07-13T00:36:14;3.05;;;1.90;;
7051;SDS011;3567;52.444;13.556;2023-07-13T00:38:39;4.93;;;1.63;;
7051;SDS011;3567;52.444;13.556;2023-07-13T00:41:05;8.77;;;2.10;;
7051;SDS011;3567;52.444;13.556;2023-07-13T00:43:31;3.47;;;1.58;;
7051;SDS011;3567;52.444;13.556;2023-07-13T00:48:46;1.77;;;1.42;;
7051;SDS011;3567;52.444;13.556;2023-07-13T00:51:13;4.30;;;1.40;;
7051;SDS011;3567;52.444;13.556;2023-07-13T00:53:42;3.78;;;1.88;;
7051;SDS011;3567;52.444;13.556;2023-07-13T00:56:07;2.72;;;1.42;;
7051;SDS011;3567;52.444;13.556;2023-07-13T00:58:34;3.35;;;1.92;;
7051;SDS011;3567;52.444;13.556;2023-07-13T01:01:00;3.47;;;1.88;;
7051;SDS011;3567;52.444;13.556;2023-07-13T01:03:26;3.13;;;2.13;;
7051;SDS011;3567;52.444;13.556;2023-07-13T01:05:51;3.22;;;2.25;;
7051;SDS011;3567;52.444;13.556;2023-07-13T01:08:18;5.75;;;2.42;;
7051;SDS011;3567;52.444;13.556;2023-07-13T01:10:55;5.80;;;2.05;;
7051;SDS011;3567;52.444;13.556;2023-07-13T01:13:22;2.67;;;1.98;;
7051;SDS011;3567;52.444;13.556;2023-07-13T01:15:48;2.58;;;1.70;;
7051;SDS011;3567;52.444;13.556;2023-07-13T01:18:18;3.80;;;2.20;;
7051;SDS011;3567;52.444;13.556;2023-07-13T01:21:00;2.97;;;1.60;;
7051;SDS011;3567;52.444;13.556;2023-07-13T01:23:27;6.78;;;2.75;;
7051;SDS011;3567;52.444;13.556;2023-07-13T01:25:54;3.40;;;2.30;;
7051;SDS011;3567;52.444;13.556;2023-07-13T01:28:21;2.85;;;2.28;;
7051;SDS011;3567;52.444;13.556;2023-07-13T01:30:47;2.63;;;2.25;;
7051;SDS011;3567;52.444;13.556;2023-07-13T01:33:17;6.18;;;2.33;;
7051;SDS011;3567;52.444;13.556;2023-07-13T01:35:43;11.85;;;3.88;;
7051;SDS011;3567;52.444;13.556;2023-07-13T01:38:10;8.70;;;3.83;;
7051;SDS011;3567;52.444;13.556;2023-07-13T01:40:38;3.15;;;1.95;;
7051;SDS011;3567;52.444;13.556;2023-07-13T01:43:04;3.95;;;2.30;;
7051;SDS011;3567;52.444;13.556;2023-07-13T01:45:30;2.10;;;1.80;;
7051;SDS011;3567;52.444;13.556;2023-07-13T01:47:55;2.63;;;1.90;;
7051;SDS011;3567;52.444;13.556;2023-07-13T01:50:21;4.28;;;2.35;;
7051;SDS011;3567;52.444;13.556;2023-07-13T01:52:46;3.45;;;2.38;;
7051;SDS011;3567;52.444;13.556;2023-07-13T01:55:12;4.80;;;2.53;;
7051;SDS011;3567;52.444;13.556;2023-07-13T01:57:38;1.85;;;1.75;;
7051;SDS011;3567;52.444;13.556;2023-07-13T02:00:04;4.10;;;2.10;;
7051;SDS011;3567;52.444;13.556;2023-07-13T02:02:31;3.05;;;1.98;;
7051;SDS011;3567;52.444;13.556;2023-07-13T02:04:57;2.90;;;2.70;;
7051;SDS011;3567;52.444;13.556;2023-07-13T02:07:22;6.45;;;2.47;;
7051;SDS011;3567;52.444;13.556;2023-07-13T02:09:48;2.40;;;1.67;;
7051;SDS011;3567;52.444;13.556;2023-07-13T02:12:13;2.50;;;2.03;;
7051;SDS011;3567;52.444;13.556;2023-07-13T02:14:39;3.95;;;2.42;;
7051;SDS011;3567;52.444;13.556;2023-07-13T02:17:04;3.70;;;2.03;;
7051;SDS011;3567;52.444;13.556;2023-07-13T02:19:30;5.03;;;3.03;;
7051;SDS011;3567;52.444;13.556;2023-07-13T02:21:56;2.30;;;2.10;;
7051;SDS011;3567;52.444;13.556;2023-07-13T02:24:21;2.45;;;2.25;;
7051;SDS011;3567;52.444;13.556;2023-07-13T02:26:47;2.63;;;2.42;;
7051;SDS011;3567;52.444;13.556;2023-07-13T02:29:13;3.58;;;2.10;;
7051;SDS011;3567;52.444;13.556;2023-07-13T02:31:38;4.05;;;3.17;;
7051;SDS011;3567;52.444;13.556;2023-07-13T02:34:04;4.80;;;2.80;;
7051;SDS011;3567;52.444;13.556;2023-07-13T02:36:29;5.30;;;2.33;;
7051;SDS011;3567;52.444;13.556;2023-07-13T02:38:57;3.53;;;2.58;;
7051;SDS011;3567;52.444;13.556;2023-07-13T02:41:23;6.10;;;3.38;;
7051;SDS011;3567;52.444;13.556;2023-07-13T02:43:48;2.95;;;2.33;;
7051;SDS011;3567;52.444;13.556;2023-07-13T02:46:14;2.38;;;2.20;;
7051;SDS011;3567;52.444;13.556;2023-07-13T02:48:39;3.35;;;2.85;;
7051;SDS011;3567;52.444;13.556;2023-07-13T02:51:05;4.50;;;3.03;;
7051;SDS011;3567;52.444;13.556;2023-07-13T02:53:32;7.00;;;2.75;;
7051;SDS011;3567;52.444;13.556;2023-07-13T02:55:58;5.20;;;3.42;;
7051;SDS011;3567;52.444;13.556;2023-07-13T02:58:23;4.80;;;2.95;;
7051;SDS011;3567;52.444;13.556;2023-07-13T03:00:48;3.08;;;2.80;;
7051;SDS011;3567;52.444;13.556;2023-07-13T03:03:15;5.53;;;2.72;;
7051;SDS011;3567;52.444;13.556;2023-07-13T03:05:42;4.18;;;3.33;;
7051;SDS011;3567;52.444;13.556;2023-07-13T03:08:09;4.35;;;2.97;;
7051;SDS011;3567;52.444;13.556;2023-07-13T03:10:36;5.03;;;3.33;;
7051;SDS011;3567;52.444;13.556;2023-07-13T03:13:02;3.55;;;3.20;;
7051;SDS011;3567;52.444;13.556;2023-07-13T03:15:28;3.17;;;2.70;;
7051;SDS011;3567;52.444;13.556;2023-07-13T03:17:53;3.85;;;3.28;;
7051;SDS011;3567;52.444;13.556;2023-07-13T03:20:18;4.82;;;3.35;;
7051;SDS011;3567;52.444;13.556;2023-07-13T03:22:45;4.40;;;3.67;;
7051;SDS011;3567;52.444;13.556;2023-07-13T03:25:10;5.78;;;3.65;;
7051;SDS011;3567;52.444;13.556;2023-07-13T03:27:36;3.92;;;3.50;;
7051;SDS011;3567;52.444;13.556;2023-07-13T03:30:02;4.35;;;3.92;;
7051;SDS011;3567;52.444;13.556;2023-07-13T03:32:29;4.88;;;3.42;;
7051;SDS011;3567;52.444;13.556;2023-07-13T03:34:55;4.78;;;3.50;;
7051;SDS011;3567;52.444;13.556;2023-07-13T03:37:20;3.53;;;3.20;;
7051;SDS011;3567;52.444;13.556;2023-07-13T03:39:46;3.67;;;3.47;;
7051;SDS011;3567;52.444;13.556;2023-07-13T03:42:11;4.20;;;3.80;;
7051;SDS011;3567;52.444;13.556;2023-07-13T03:44:37;5.40;;;3.83;;
7051;SDS011;3567;52.444;13.556;2023-07-13T03:47:04;4.57;;;3.78;;
7051;SDS011;3567;52.444;13.556;2023-07-13T03:49:31;4.07;;;3.65;;
7051;SDS011;3567;52.444;13.556;2023-07-13T03:51:56;4.47;;;4.07;;
7051;SDS011;3567;52.444;13.556;2023-07-13T03:54:21;6.70;;;4.22;;
7051;SDS011;3567;52.444;13.556;2023-07-13T03:56:47;4.18;;;3.80;;
7051;SDS011;3567;52.444;13.556;2023-07-13T03:59:12;5.00;;;4.00;;
7051;SDS011;3567;52.444;13.556;2023-07-13T04:01:38;4.63;;;3.55;;
7051;SDS011;3567;52.444;13.556;2023-07-13T04:04:04;4.72;;;3.92;;
7051;SDS011;3567;52.444;13.556;2023-07-13T04:06:29;7.35;;;3.80;;
7051;SDS011;3567;52.444;13.556;2023-07-13T04:08:56;5.22;;;3.72;;
7051;SDS011;3567;52.444;13.556;2023-07-13T04:11:24;6.28;;;3.70;;
7051;SDS011;3567;52.444;13.556;2023-07-13T04:13:51;6.63;;;3.78;;
7051;SDS011;3567;52.444;13.556;2023-07-13T04:16:17;4.50;;;3.38;;
7051;SDS011;3567;52.444;13.556;2023-07-13T04:18:44;3.58;;;3.03;;
7051;SDS011;3567;52.444;13.556;2023-07-13T04:21:11;5.78;;;3.35;;
7051;SDS011;3567;52.444;13.556;2023-07-13T04:23:38;5.57;;;3.88;;
7051;SDS011;3567;52.444;13.556;2023-07-13T04:26:04;5.13;;;3.03;;
7051;SDS011;3567;52.444;13.556;2023-07-13T04:28:30;7.15;;;3.58;;
7051;SDS011;3567;52.444;13.556;2023-07-13T04:30:56;4.90;;;3.83;;
7051;SDS011;3567;52.444;13.556;2023-07-13T04:33:21;4.88;;;3.63;;
7051;SDS011;3567;52.444;13.556;2023-07-13T04:35:51;6.28;;;3.40;;
7051;SDS011;3567;52.444;13.556;2023-07-13T04:38:26;6.57;;;3.17;;
7051;SDS011;3567;52.444;13.556;2023-07-13T04:40:54;5.53;;;3.85;;
7051;SDS011;3567;52.444;13.556;2023-07-13T04:43:24;3.03;;;2.83;;
7051;SDS011;3567;52.444;13.556;2023-07-13T04:45:51;2.70;;;2.47;;
7051;SDS011;3567;52.444;13.556;2023-07-13T04:48:16;2.88;;;2.60;;
7051;SDS011;3567;52.444;13.556;2023-07-13T04:50:42;6.07;;;2.55;;
7051;SDS011;3567;52.444;13.556;2023-07-13T04:53:08;5.47;;;2.65;;
7051;SDS011;3567;52.444;13.556;2023-07-13T04:55:34;3.60;;;2.53;;
7051;SDS011;3567;52.444;13.556;2023-07-13T04:57:59;6.78;;;2.70;;
7051;SDS011;3567;52.444;13.556;2023-07-13T05:00:25;2.92;;;2.17;;
7051;SDS011;3567;52.444;13.556;2023-07-13T05:02:51;4.13;;;2.45;;
7051;SDS011;3567;52.444;13.556;2023-07-13T05:05:16;3.63;;;2.63;;
7051;SDS011;3567;52.444;13.556;2023-07-13T05:07:42;7.15;;;3.15;;
7051;SDS011;3567;52.444;13.556;2023-07-13T05:10:08;6.57;;;2.92;;
7051;SDS011;3567;52.444;13.556;2023-07-13T05:12:34;3.85;;;1.90;;
7051;SDS011;3567;52.444;13.556;2023-07-13T05:15:00;1.95;;;1.80;;
7051;SDS011;3567;52.444;13.556;2023-07-13T05:17:26;3.15;;;1.85;;
7051;SDS011;3567;52.444;13.556;2023-07-13T05:19:52;4.88;;;1.75;;
7051;SDS011;3567;52.444;13.556;2023-07-13T05:22:17;5.50;;;2.33;;
7051;SDS011;3567;52.444;13.556;2023-07-13T05:24:42;4.10;;;1.83;;
7051;SDS011;3567;52.444;13.556;2023-07-13T05:27:08;3.13;;;1.88;;
7051;SDS011;3567;52.444;13.556;2023-07-13T05:29:33;1.92;;;1.50;;
7051;SDS011;3567;52.444;13.556;2023-07-13T05:31:58;2.20;;;1.52;;
7051;SDS011;3567;52.444;13.556;2023-07-13T05:34:24;2.25;;;1.70;;
7051;SDS011;3567;52.444;13.556;2023-07-13T05:36:50;7.10;;;2.20;;
7051;SDS011;3567;52.444;13.556;2023-07-13T05:39:16;3.33;;;1.65;;
7051;SDS011;3567;52.444;13.556;2023-07-13T05:41:41;2.13;;;1.50;;
7051;SDS011;3567;52.444;13.556;2023-07-13T05:44:07;3.58;;;1.80;;
7051;SDS011;3567;52.444;13.556;2023-07-13T05:46:32;3.30;;;1.20;;
7051;SDS011;3567;52.444;13.556;2023-07-13T05:48:58;3.70;;;1.63;;
7051;SDS011;3567;52.444;13.556;2023-07-13T05:51:24;2.13;;;1.35;;
7051;SDS011;3567;52.444;13.556;2023-07-13T05:53:49;4.78;;;1.38;;
7051;SDS011;3567;52.444;13.556;2023-07-13T05:56:15;5.97;;;2.17;;
7051;SDS011;3567;52.444;13.556;2023-07-13T05:58:41;3.03;;;1.65;;
7051;SDS011;3567;52.444;13.556;2023-07-13T06:01:09;3.30;;;1.00;;
7051;SDS011;3567;52.444;13.556;2023-07-13T06:03:36;2.28;;;1.15;;
7051;SDS011;3567;52.444;13.556;2023-07-13T06:06:06;3.38;;;1.08;;
7051;SDS011;3567;52.444;13.556;2023-07-13T06:08:32;1.88;;;1.20;;
7051;SDS011;3567;52.444;13.556;2023-07-13T06:11:08;2.83;;;1.15;;
7051;SDS011;3567;52.444;13.556;2023-07-13T06:13:38;2.38;;;1.30;;
7051;SDS011;3567;52.444;13.556;2023-07-13T06:16:04;2.13;;;1.00;;
7051;SDS011;3567;52.444;13.556;2023-07-13T06:18:31;4.13;;;1.40;;
7051;SDS011;3567;52.444;13.556;2023-07-13T06:20:57;2.30;;;1.45;;
7051;SDS011;3567;52.444;13.556;2023-07-13T06:23:23;3.22;;;1.35;;
7051;SDS011;3567;52.444;13.556;2023-07-13T06:25:49;4.43;;;1.00;;
7051;SDS011;3567;52.444;13.556;2023-07-13T06:28:15;1.60;;;0.80;;
7051;SDS011;3567;52.444;13.556;2023-07-13T06:30:40;7.43;;;1.23;;
7051;SDS011;3567;52.444;13.556;2023-07-13T06:38:59;3.72;;;1.33;;
7051;SDS011;3567;52.444;13.556;2023-07-13T06:41:24;2.25;;;1.30;;
7051;SDS011;3567;52.444;13.556;2023-07-13T06:43:52;2.42;;;1.05;;
7051;SDS011;3567;52.444;13.556;2023-07-13T06:46:20;3.03;;;1.20;;
7051;SDS011;3567;52.444;13.556;2023-07-13T06:48:47;2.05;;;0.98;;
7051;SDS011;3567;52.444;13.556;2023-07-13T06:51:12;2.88;;;1.20;;
7051;SDS011;3567;52.444;13.556;2023-07-13T06:53:38;2.17;;;1.65;;
7051;SDS011;3567;52.444;13.556;2023-07-13T06:56:03;3.03;;;1.02;;
7051;SDS011;3567;52.444;13.556;2023-07-13T06:58:29;1.67;;;1.13;;
7051;SDS011;3567;52.444;13.556;2023-07-13T07:00:54;1.67;;;0.98;;
7051;SDS011;3567;52.444;13.556;2023-07-13T07:03:19;2.08;;;1.10;;
7051;SDS011;3567;52.444;13.556;2023-07-13T07:05:45;3.10;;;1.33;;
7051;SDS011;3567;52.444;13.556;2023-07-13T07:08:11;2.58;;;1.20;;
7051;SDS011;3567;52.444;13.556;2023-07-13T07:10:36;1.92;;;0.90;;
7051;SDS011;3567;52.444;13.556;2023-07-13T07:13:02;8.85;;;1.40;;
7051;SDS011;3567;52.444;13.556;2023-07-13T07:15:28;2.53;;;0.90;;
7051;SDS011;3567;52.444;13.556;2023-07-13T07:17:53;2.00;;;1.05;;
7051;SDS011;3567;52.444;13.556;2023-07-13T07:20:19;3.03;;;1.25;;
7051;SDS011;3567;52.444;13.556;2023-07-13T07:22:45;2.10;;;0.93;;
7051;SDS011;3567;52.444;13.556;2023-07-13T07:25:11;6.07;;;1.33;;
7051;SDS011;3567;52.444;13.556;2023-07-13T07:27:36;2.38;;;0.63;;
7051;SDS011;3567;52.444;13.556;2023-07-13T07:30:02;3.70;;;1.17;;
7051;SDS011;3567;52.444;13.556;2023-07-13T07:32:28;4.20;;;0.93;;
7051;SDS011;3567;52.444;13.556;2023-07-13T07:34:56;4.93;;;1.00;;
7051;SDS011;3567;52.444;13.556;2023-07-13T07:37:22;3.72;;;1.60;;
7051;SDS011;3567;52.444;13.556;2023-07-13T07:39:47;4.25;;;1.10;;
7051;SDS011;3567;52.444;13.556;2023-07-13T07:42:13;2.08;;;1.05;;
7051;SDS011;3567;52.444;13.556;2023-07-13T07:44:40;1.25;;;0.70;;
7051;SDS011;3567;52.444;13.556;2023-07-13T07:47:05;2.42;;;0.95;;
7051;SDS011;3567;52.444;13.556;2023-07-13T07:49:31;2.92;;;0.88;;
7051;SDS011;3567;52.444;13.556;2023-07-13T07:51:57;1.27;;;0.82;;
7051;SDS011;3567;52.444;13.556;2023-07-13T07:54:22;4.00;;;1.80;;
7051;SDS011;3567;52.444;13.556;2023-07-13T07:56:47;1.27;;;0.70;;
7051;SDS011;3567;52.444;13.556;2023-07-13T07:59:13;1.95;;;0.80;;
7051;SDS011;3567;52.444;13.556;2023-07-13T08:01:38;2.50;;;1.63;;
7051;SDS011;3567;52.444;13.556;2023-07-13T08:04:03;2.95;;;0.90;;
7051;SDS011;3567;52.444;13.556;2023-07-13T08:06:29;1.35;;;0.57;;
7051;SDS011;3567;52.444;13.556;2023-07-13T08:08:58;1.60;;;0.88;;
7051;SDS011;3567;52.444;13.556;2023-07-13T08:11:23;3.55;;;1.00;;
7051;SDS011;3567;52.444;13.556;2023-07-13T08:13:49;2.35;;;0.73;;
7051;SDS011;3567;52.444;13.556;2023-07-13T08:16:15;0.90;;;0.60;;
7051;SDS011;3567;52.444;13.556;2023-07-13T08:18:40;2.70;;;1.05;;
7051;SDS011;3567;52.444;13.556;2023-07-13T08:21:06;2.53;;;0.88;;
7051;SDS011;3567;52.444;13.556;2023-07-13T08:23:32;4.32;;;1.08;;
7051;SDS011;3567;52.444;13.556;2023-07-13T08:25:58;4.97;;;1.13;;
7051;SDS011;3567;52.444;13.556;2023-07-13T08:28:26;7.40;;;1.05;;
7051;SDS011;3567;52.444;13.556;2023-07-13T08:30:52;4.78;;;0.95;;
7051;SDS011;3567;52.444;13.556;2023-07-13T08:33:20;1.58;;;0.88;;
7051;SDS011;3567;52.444;13.556;2023-07-13T08:35:49;2.17;;;0.60;;
7051;SDS011;3567;52.444;13.556;2023-07-13T08:38:15;1.58;;;0.77;;
7051;SDS011;3567;52.444;13.556;2023-07-13T08:43:13;3.67;;;0.60;;
7051;SDS011;3567;52.444;13.556;2023-07-13T08:45:44;3.75;;;0.73;;
7051;SDS011;3567;52.444;13.556;2023-07-13T08:48:49;2.10;;;1.00;;
7051;SDS011;3567;52.444;13.556;2023-07-13T08:54:29;4.22;;;0.60;;
7051;SDS011;3567;52.444;13.556;2023-07-13T08:57:02;3.30;;;0.80;;
7051;SDS011;3567;52.444;13.556;2023-07-13T08:59:37;1.45;;;0.73;;
7051;SDS011;3567;52.444;13.556;2023-07-13T09:04:39;2.13;;;0.90;;
7051;SDS011;3567;52.444;13.556;2023-07-13T09:07:23;1.13;;;0.68;;
7051;SDS011;3567;52.444;13.556;2023-07-13T09:15:38;2.15;;;0.63;;
7051;SDS011;3567;52.444;13.556;2023-07-13T09:18:08;2.25;;;0.68;;
7051;SDS011;3567;52.444;13.556;2023-07-13T09:20:59;1.67;;;0.80;;
7051;SDS011;3567;52.444;13.556;2023-07-13T09:23:28;2.88;;;0.80;;
7051;SDS011;3567;52.444;13.556;2023-07-13T09:26:05;2.13;;;0.68;;
7051;SDS011;3567;52.444;13.556;2023-07-13T09:28:40;2.33;;;1.08;;
7051;SDS011;3567;52.444;13.556;2023-07-13T09:31:19;1.85;;;0.88;;
7051;SDS011;3567;52.444;13.556;2023-07-13T09:33:49;2.90;;;0.88;;
7051;SDS011;3567;52.444;13.556;2023-07-13T09:36:22;2.75;;;0.85;;
7051;SDS011;3567;52.444;13.556;2023-07-13T09:39:37;2.22;;;0.75;;
7051;SDS011;3567;52.444;13.556;2023-07-13T09:46:39;2.80;;;0.70;;
7051;SDS011;3567;52.444;13.556;2023-07-13T09:49:11;1.65;;;1.08;;
7051;SDS011;3567;52.444;13.556;2023-07-13T09:51:38;3.70;;;0.93;;
7051;SDS011;3567;52.444;13.556;2023-07-13T09:54:05;1.52;;;0.88;;
7051;SDS011;3567;52.444;13.556;2023-07-13T09:56:30;1.13;;;0.70;;
7051;SDS011;3567;52.444;13.556;2023-07-13T09:58:57;1.73;;;0.93;;
7051;SDS011;3567;52.444;13.556;2023-07-13T10:01:36;4.70;;;1.33;;
7051;SDS011;3567;52.444;13.556;2023-07-13T10:04:10;2.78;;;1.02;;
7051;SDS011;3567;52.444;13.556;2023-07-13T10:06:38;4.85;;;1.25;;
7051;SDS011;3567;52.444;13.556;2023-07-13T10:09:07;5.40;;;1.23;;
7051;SDS011;3567;52.444;13.556;2023-07-13T10:11:34;5.05;;;0.90;;
7051;SDS011;3567;52.444;13.556;2023-07-13T10:14:14;1.92;;;0.90;;
7051;SDS011;3567;52.444;13.556;2023-07-13T10:16:43;0.98;;;0.68;;
7051;SDS011;3567;52.444;13.556;2023-07-13T10:24:25;5.60;;;1.50;;
7051;SDS011;3567;52.444;13.556;2023-07-13T10:26:53;5.40;;;1.48;;
7051;SDS011;3567;52.444;13.556;2023-07-13T10:29:25;3.22;;;1.60;;
7051;SDS011;3567;52.444;13.556;2023-07-13T10:31:53;5.07;;;1.50;;
7051;SDS011;3567;52.444;13.556;2023-07-13T10:34:19;3.75;;;1.50;;
7051;SDS011;3567;52.444;13.556;2023-07-13T10:36:46;6.30;;;1.85;;
7051;SDS011;3567;52.444;13.556;2023-07-13T10:39:17;3.35;;;1.73;;
7051;SDS011;3567;52.444;13.556;2023-07-13T10:41:46;3.20;;;1.20;;
7051;SDS011;3567;52.444;13.556;2023-07-13T10:44:18;2.83;;;1.40;;
7051;SDS011;3567;52.444;13.556;2023-07-13T10:46:46;3.75;;;3.10;;
7051;SDS011;3567;52.444;13.556;2023-07-13T10:49:13;4.85;;;1.75;;
7051;SDS011;3567;52.444;13.556;2023-07-13T10:51:39;2.47;;;1.60;;
7051;SDS011;3567;52.444;13.556;2023-07-13T10:59:42;2.60;;;1.30;;
7051;SDS011;3567;52.444;13.556;2023-07-13T11:02:23;4.72;;;1.50;;
7051;SDS011;3567;52.444;13.556;2023-07-13T11:04:52;2.85;;;1.85;;
7051;SDS011;3567;52.444;13.556;2023-07-13T11:07:26;2.92;;;1.30;;
7051;SDS011;3567;52.444;13.556;2023-07-13T11:09:54;3.03;;;1.48;;
7051;SDS011;3567;52.444;13.556;2023-07-13T11:12:48;2.13;;;1.20;;
7051;SDS011;3567;52.444;13.556;2023-07-13T11:15:15;3.17;;;1.77;;
7051;SDS011;3567;52.444;13.556;2023-07-13T11:17:54;3.88;;;1.45;;
7051;SDS011;3567;52.444;13.556;2023-07-13T11:20:36;2.15;;;1.73;;
7051;SDS011;3567;52.444;13.556;2023-07-13T11:25:38;2.35;;;1.58;;
7051;SDS011;3567;52.444;13.556;2023-07-13T11:31:18;2.08;;;1.40;;
7051;SDS011;3567;52.444;13.556;2023-07-13T11:36:04;5.70;;;1.27;;
7051;SDS011;3567;52.444;13.556;2023-07-13T11:38:39;4.07;;;1.10;;
7051;SDS011;3567;52.444;13.556;2023-07-13T11:41:07;1.35;;;1.20;;
7051;SDS011;3567;52.444;13.556;2023-07-13T11:43:40;3.72;;;1.20;;
7051;SDS011;3567;52.444;13.556;2023-07-13T11:46:19;3.15;;;1.23;;
7051;SDS011;3567;52.444;13.556;2023-07-13T11:48:47;1.23;;;0.90;;
7051;SDS011;3567;52.444;13.556;2023-07-13T11:51:24;0.82;;;0.82;;
7051;SDS011;3567;52.444;13.556;2023-07-13T11:53:54;2.28;;;1.10;;
7051;SDS011;3567;52.444;13.556;2023-07-13T11:56:22;2.00;;;1.00;;
7051;SDS011;3567;52.444;13.556;2023-07-13T11:58:53;3.40;;;0.98;;
7051;SDS011;3567;52.444;13.556;2023-07-13T12:01:22;2.45;;;1.10;;
7051;SDS011;3567;52.444;13.556;2023-07-13T12:03:50;3.28;;;1.33;;
7051;SDS011;3567;52.444;13.556;2023-07-13T12:06:35;2.55;;;1.20;;
7051;SDS011;3567;52.444;13.556;2023-07-13T12:09:10;5.20;;;1.10;;
7051;SDS011;3567;52.444;13.556;2023-07-13T12:11:39;4.03;;;1.30;;
7051;SDS011;3567;52.444;13.556;2023-07-13T12:14:05;1.38;;;1.02;;
7051;SDS011;3567;52.444;13.556;2023-07-13T12:16:32;3.85;;;1.65;;
7051;SDS011;3567;52.444;13.556;2023-07-13T12:19:02;3.65;;;1.42;;
7051;SDS011;3567;52.444;13.556;2023-07-13T12:21:32;3.40;;;1.40;;
7051;SDS011;3567;52.444;13.556;2023-07-13T12:23:59;1.65;;;1.10;;
7051;SDS011;3567;52.444;13.556;2023-07-13T12:26:29;3.60;;;1.10;;
7051;SDS011;3567;52.444;13.556;2023-07-13T12:28:56;5.70;;;1.38;;
7051;SDS011;3567;52.444;13.556;2023-07-13T12:34:09;4.07;;;1.00;;
7051;SDS011;3567;52.444;13.556;2023-07-13T12:36:49;3.25;;;1.23;;
7051;SDS011;3567;52.444;13.556;2023-07-13T12:39:36;2.92;;;1.08;;
7051;SDS011;3567;52.444;13.556;2023-07-13T12:44:49;2.03;;;1.17;;
7051;SDS011;3567;52.444;13.556;2023-07-13T12:47:15;2.88;;;1.27;;
7051;SDS011;3567;52.444;13.556;2023-07-13T12:49:42;3.95;;;1.17;;
7051;SDS011;3567;52.444;13.556;2023-07-13T12:52:14;4.72;;;1.27;;
7051;SDS011;3567;52.444;13.556;2023-07-13T12:54:41;4.57;;;1.23;;
7051;SDS011;3567;52.444;13.556;2023-07-13T12:57:08;2.40;;;1.05;;
7051;SDS011;3567;52.444;13.556;2023-07-13T12:59:41;4.35;;;1.10;;
7051;SDS011;3567;52.444;13.556;2023-07-13T13:02:17;1.80;;;1.00;;
7051;SDS011;3567;52.444;13.556;2023-07-13T13:04:53;2.53;;;0.98;;
7051;SDS011;3567;52.444;13.556;2023-07-13T13:07:21;4.70;;;1.27;;
7051;SDS011;3567;52.444;13.556;2023-07-13T13:09:46;3.25;;;1.00;;
7051;SDS011;3567;52.444;13.556;2023-07-13T13:12:12;4.95;;;1.20;;
7051;SDS011;3567;52.444;13.556;2023-07-13T13:14:37;2.00;;;1.00;;
7051;SDS011;3567;52.444;13.556;2023-07-13T13:17:04;2.03;;;1.00;;
7051;SDS011;3567;52.444;13.556;2023-07-13T13:19:44;1.95;;;1.25;;
7051;SDS011;3567;52.444;13.556;2023-07-13T13:22:10;2.25;;;1.20;;
7051;SDS011;3567;52.444;13.556;2023-07-13T13:24:35;2.30;;;0.95;;
7051;SDS011;3567;52.444;13.556;2023-07-13T13:27:00;3.47;;;0.98;;
7051;SDS011;3567;52.444;13.556;2023-07-13T13:29:27;1.42;;;0.70;;
7051;SDS011;3567;52.444;13.556;2023-07-13T13:31:54;1.52;;;1.00;;
7051;SDS011;3567;52.444;13.556;2023-07-13T13:34:20;2.85;;;1.10;;
7051;SDS011;3567;52.444;13.556;2023-07-13T13:36:48;3.58;;;1.13;;
7051;SDS011;3567;52.444;13.556;2023-07-13T13:39:21;1.55;;;0.73;;
7051;SDS011;3567;52.444;13.556;2023-07-13T13:41:50;2.78;;;0.98;;
7051;SDS011;3567;52.444;13.556;2023-07-13T13:44:17;2.22;;;1.20;;
7051;SDS011;3567;52.444;13.556;2023-07-13T13:46:53;4.38;;;1.42;;
7051;SDS011;3567;52.444;13.556;2023-07-13T13:49:25;1.38;;;0.65;;
7051;SDS011;3567;52.444;13.556;2023-07-13T13:51:52;2.78;;;0.93;;
7051;SDS011;3567;52.444;13.556;2023-07-13T13:54:19;2.90;;;0.85;;
7051;SDS011;3567;52.444;13.556;2023-07-13T13:56:46;1.40;;;0.70;;
7051;SDS011;3567;52.444;13.556;2023-07-13T13:59:13;3.38;;;1.10;;
7051;SDS011;3567;52.444;13.556;2023-07-13T14:01:39;2.03;;;0.80;;
7051;SDS011;3567;52.444;13.556;2023-07-13T14:04:06;2.03;;;0.73;;
7051;SDS011;3567;52.444;13.556;2023-07-13T14:06:39;2.67;;;0.93;;
7051;SDS011;3567;52.444;13.556;2023-07-13T14:09:05;2.58;;;0.88;;
7051;SDS011;3567;52.444;13.556;2023-07-13T14:11:37;1.35;;;0.73;;
7051;SDS011;3567;52.444;13.556;2023-07-13T14:14:04;2.95;;;0.70;;
7051;SDS011;3567;52.444;13.556;2023-07-13T14:16:30;1.38;;;0.60;;
7051;SDS011;3567;52.444;13.556;2023-07-13T14:18:58;2.97;;;0.85;;
7051;SDS011;3567;52.444;13.556;2023-07-13T14:21:25;2.80;;;0.88;;
7051;SDS011;3567;52.444;13.556;2023-07-13T14:23:52;1.48;;;0.75;;
7051;SDS011;3567;52.444;13.556;2023-07-13T14:26:18;2.72;;;0.77;;
7051;SDS011;3567;52.444;13.556;2023-07-13T14:28:47;2.60;;;0.80;;
7051;SDS011;3567;52.444;13.556;2023-07-13T14:31:14;2.90;;;0.65;;
7051;SDS011;3567;52.444;13.556;2023-07-13T14:33:41;1.73;;;0.73;;
7051;SDS011;3567;52.444;13.556;2023-07-13T14:38:54;1.83;;;0.70;;
7051;SDS011;3567;52.444;13.556;2023-07-13T14:41:19;2.60;;;0.75;;
7051;SDS011;3567;52.444;13.556;2023-07-13T14:43:45;2.08;;;0.68;;
7051;SDS011;3567;52.444;13.556;2023-07-13T14:46:33;1.70;;;0.57;;
7051;SDS011;3567;52.444;13.556;2023-07-13T14:49:01;0.63;;;0.57;;
7051;SDS011;3567;52.444;13.556;2023-07-13T14:51:32;3.63;;;0.82;;
7051;SDS011;3567;52.444;13.556;2023-07-13T14:54:02;2.70;;;0.93;;
7051;SDS011;3567;52.444;13.556;2023-07-13T14:56:29;0.73;;;0.73;;
7051;SDS011;3567;52.444;13.556;2023-07-13T14:58:55;3.53;;;1.00;;
7051;SDS011;3567;52.444;13.556;2023-07-13T15:01:20;1.65;;;0.60;;
7051;SDS011;3567;52.444;13.556;2023-07-13T15:03:48;1.13;;;1.02;;
7051;SDS011;3567;52.444;13.556;2023-07-13T15:06:15;3.22;;;0.73;;
7051;SDS011;3567;52.444;13.556;2023-07-13T15:08:42;1.95;;;0.90;;
7051;SDS011;3567;52.444;13.556;2023-07-13T15:11:08;1.58;;;0.63;;
7051;SDS011;3567;52.444;13.556;2023-07-13T15:13:36;3.40;;;0.63;;
7051;SDS011;3567;52.444;13.556;2023-07-13T15:16:03;3.38;;;0.60;;
7051;SDS011;3567;52.444;13.556;2023-07-13T15:18:36;0.77;;;0.65;;
7051;SDS011;3567;52.444;13.556;2023-07-13T15:21:03;5.60;;;0.55;;
7051;SDS011;3567;52.444;13.556;2023-07-13T15:23:29;2.17;;;0.70;;
7051;SDS011;3567;52.444;13.556;2023-07-13T15:25:54;1.90;;;0.93;;
7051;SDS011;3567;52.444;13.556;2023-07-13T15:28:19;1.25;;;0.60;;
7051;SDS011;3567;52.444;13.556;2023-07-13T15:30:45;0.95;;;0.60;;
7051;SDS011;3567;52.444;13.556;2023-07-13T15:33:23;2.47;;;0.45;;
7051;SDS011;3567;52.444;13.556;2023-07-13T15:35:51;1.67;;;1.15;;
7051;SDS011;3567;52.444;13.556;2023-07-13T15:38:29;0.63;;;0.63;;
7051;SDS011;3567;52.444;13.556;2023-07-13T15:40:56;2.42;;;0.60;;
7051;SDS011;3567;52.444;13.556;2023-07-13T15:43:22;0.63;;;0.50;;
7051;SDS011;3567;52.444;13.556;2023-07-13T15:45:48;2.47;;;0.60;;
7051;SDS011;3567;52.444;13.556;2023-07-13T15:48:17;1.15;;;0.47;;
7051;SDS011;3567;52.444;13.556;2023-07-13T15:50:46;4.53;;;0.47;;
7051;SDS011;3567;52.444;13.556;2023-07-13T15:53:14;1.70;;;0.60;;
7051;SDS011;3567;52.444;13.556;2023-07-13T15:55:44;0.80;;;0.60;;
7051;SDS011;3567;52.444;13.556;2023-07-13T15:58:11;1.80;;;0.50;;
7051;SDS011;3567;52.444;13.556;2023-07-13T16:00:37;1.20;;;0.68;;